sensor_id;sensor_type;location;lat;lon;timestamp;P1;durP1;ratioP1;P2;durP2;ratioP2
56794;SDS011;42678;59.400;18.410;2022-11-20T00:01:38;28.48;;;4.25;;
56794;SDS011;42678;59.400;18.410;2022-11-20T00:04:03;21.60;;;4.38;;
56794;SDS011;42678;59.400;18.410;2022-11-20T00:06:29;23.98;;;4.65;;
56794;SDS011;42678;59.400;18.410;2022-11-20T00:08:55;17.90;;;3.78;;
56794;SDS011;42678;59.400;18.410;2022-11-20T00:11:22;19.50;;;4.15;;
56794;SDS011;42678;59.400;18.410;2022-11-20T00:13:48;25.27;;;5.22;;
56794;SDS011;42678;59.400;18.410;2022-11-20T00:16:15;25.13;;;4.80;;
56794;SDS011;42678;59.400;18.410;2022-11-20T00:18:44;23.30;;;5.13;;
56794;SDS011;42678;59.400;18.410;2022-11-20T00:21:13;20.50;;;4.03;;
56794;SDS011;42678;59.400;18.410;2022-11-20T00:23:39;18.13;;;4.80;;
56794;SDS011;42678;59.400;18.410;2022-11-20T00:26:06;20.55;;;5.47;;
56794;SDS011;42678;59.400;18.410;2022-11-20T00:28:31;22.20;;;4.38;;
56794;SDS011;42678;59.400;18.410;2022-11-20T00:33:28;16.65;;;3.92;;
56794;SDS011;42678;59.400;18.410;2022-11-20T00:35:58;10.07;;;3.30;;
56794;SDS011;42678;59.400;18.410;2022-11-20T00:38:23;29.02;;;5.13;;
56794;SDS011;42678;59.400;18.410;2022-11-20T00:40:54;27.13;;;4.82;;
56794;SDS011;42678;59.400;18.410;2022-11-20T00:43:19;16.60;;;4.18;;
56794;SDS011;42678;59.400;18.410;2022-11-20T00:45:44;26.38;;;4.72;;
56794;SDS011;42678;59.400;18.410;2022-11-20T00:48:10;19.50;;;4.57;;
56794;SDS011;42678;59.400;18.410;2022-11-20T00:50:35;23.17;;;4.93;;
56794;SDS011;42678;59.400;18.410;2022-11-20T00:53:01;18.00;;;3.70;;
56794;SDS011;42678;59.400;18.410;2022-11-20T00:55:26;17.23;;;3.72;;
56794;SDS011;42678;59.400;18.410;2022-11-20T00:57:51;17.98;;;4.45;;
56794;SDS011;42678;59.400;18.410;2022-11-20T01:00:16;14.75;;;4.18;;
56794;SDS011;42678;59.400;18.410;2022-11-20T01:02:42;29.58;;;6.53;;
56794;SDS011;42678;59.400;18.410;2022-11-20T01:05:07;21.85;;;5.78;;
56794;SDS011;42678;59.400;18.410;2022-11-20T01:07:33;24.85;;;6.50;;
56794;SDS011;42678;59.400;18.410;2022-11-20T01:09:58;25.58;;;5.22;;
56794;SDS011;42678;59.400;18.410;2022-11-20T01:12:23;24.75;;;5.13;;
56794;SDS011;42678;59.400;18.410;2022-11-20T01:14:49;15.38;;;4.07;;
56794;SDS011;42678;59.400;18.410;2022-11-20T01:17:14;21.67;;;5.32;;
56794;SDS011;42678;59.400;18.410;2022-11-20T01:19:40;19.75;;;4.97;;
56794;SDS011;42678;59.400;18.410;2022-11-20T01:22:05;25.40;;;6.32;;
56794;SDS011;42678;59.400;18.410;2022-11-20T01:24:30;30.02;;;6.75;;
56794;SDS011;42678;59.400;18.410;2022-11-20T01:26:56;27.48;;;5.10;;
56794;SDS011;42678;59.400;18.410;2022-11-20T01:29:22;19.60;;;5.90;;
56794;SDS011;42678;59.400;18.410;2022-11-20T01:31:48;26.85;;;6.30;;
56794;SDS011;42678;59.400;18.410;2022-11-20T01:34:15;17.90;;;4.93;;
56794;SDS011;42678;59.400;18.410;2022-11-20T01:36:41;15.40;;;4.22;;
56794;SDS011;42678;59.400;18.410;2022-11-20T01:39:10;18.55;;;5.63;;
56794;SDS011;42678;59.400;18.410;2022-11-20T01:41:36;27.23;;;5.90;;
56794;SDS011;42678;59.400;18.410;2022-11-20T01:44:21;24.58;;;5.35;;
56794;SDS011;42678;59.400;18.410;2022-11-20T01:50:04;25.85;;;5.50;;
56794;SDS011;42678;59.400;18.410;2022-11-20T01:52:20;18.88;;;4.90;;
56794;SDS011;42678;59.400;18.410;2022-11-20T01:54:52;21.67;;;5.15;;
56794;SDS011;42678;59.400;18.410;2022-11-20T01:57:19;20.63;;;5.75;;
56794;SDS011;42678;59.400;18.410;2022-11-20T01:59:47;14.40;;;4.45;;
56794;SDS011;42678;59.400;18.410;2022-11-20T02:02:14;19.95;;;4.68;;
56794;SDS011;42678;59.400;18.410;2022-11-20T02:04:39;19.42;;;5.47;;
56794;SDS011;42678;59.400;18.410;2022-11-20T02:07:05;22.85;;;5.05;;
56794;SDS011;42678;59.400;18.410;2022-11-20T02:09:30;22.35;;;5.72;;
56794;SDS011;42678;59.400;18.410;2022-11-20T02:11:56;21.08;;;5.35;;
56794;SDS011;42678;59.400;18.410;2022-11-20T02:14:22;22.95;;;5.40;;
56794;SDS011;42678;59.400;18.410;2022-11-20T02:16:48;18.50;;;4.80;;
56794;SDS011;42678;59.400;18.410;2022-11-20T02:19:20;16.65;;;3.65;;
56794;SDS011;42678;59.400;18.410;2022-11-20T02:21:53;17.38;;;4.72;;
56794;SDS011;42678;59.400;18.410;2022-11-20T02:24:21;19.02;;;4.50;;
56794;SDS011;42678;59.400;18.410;2022-11-20T02:26:51;8.27;;;2.33;;
56794;SDS011;42678;59.400;18.410;2022-11-20T02:29:20;19.58;;;5.05;;
56794;SDS011;42678;59.400;18.410;2022-11-20T02:31:47;16.45;;;4.22;;
56794;SDS011;42678;59.400;18.410;2022-11-20T02:34:13;17.88;;;4.10;;
56794;SDS011;42678;59.400;18.410;2022-11-20T02:36:39;16.80;;;4.72;;
56794;SDS011;42678;59.400;18.410;2022-11-20T02:39:04;14.05;;;4.10;;
56794;SDS011;42678;59.400;18.410;2022-11-20T02:41:37;13.98;;;4.25;;
56794;SDS011;42678;59.400;18.410;2022-11-20T02:44:02;18.77;;;4.75;;
56794;SDS011;42678;59.400;18.410;2022-11-20T02:46:28;16.02;;;4.40;;
56794;SDS011;42678;59.400;18.410;2022-11-20T02:48:54;18.55;;;4.85;;
56794;SDS011;42678;59.400;18.410;2022-11-20T02:51:19;12.75;;;4.03;;
56794;SDS011;42678;59.400;18.410;2022-11-20T02:53:45;16.67;;;4.05;;
56794;SDS011;42678;59.400;18.410;2022-11-20T02:56:10;14.27;;;3.53;;
56794;SDS011;42678;59.400;18.410;2022-11-20T02:58:36;20.55;;;4.25;;
56794;SDS011;42678;59.400;18.410;2022-11-20T03:01:01;12.73;;;3.72;;
56794;SDS011;42678;59.400;18.410;2022-11-20T03:03:27;13.70;;;3.65;;
56794;SDS011;42678;59.400;18.410;2022-11-20T03:05:52;12.77;;;3.47;;
56794;SDS011;42678;59.400;18.410;2022-11-20T03:08:17;8.45;;;2.75;;
56794;SDS011;42678;59.400;18.410;2022-11-20T03:10:43;6.22;;;2.65;;
56794;SDS011;42678;59.400;18.410;2022-11-20T03:13:08;15.20;;;3.85;;
56794;SDS011;42678;59.400;18.410;2022-11-20T03:15:35;10.90;;;3.70;;
56794;SDS011;42678;59.400;18.410;2022-11-20T03:18:00;15.57;;;3.65;;
56794;SDS011;42678;59.400;18.410;2022-11-20T03:20:26;15.60;;;4.65;;
56794;SDS011;42678;59.400;18.410;2022-11-20T03:22:53;13.07;;;3.70;;
56794;SDS011;42678;59.400;18.410;2022-11-20T03:25:18;10.70;;;3.17;;
56794;SDS011;42678;59.400;18.410;2022-11-20T03:27:44;10.07;;;2.78;;
56794;SDS011;42678;59.400;18.410;2022-11-20T03:30:09;10.35;;;3.92;;
56794;SDS011;42678;59.400;18.410;2022-11-20T03:32:35;7.82;;;2.38;;
56794;SDS011;42678;59.400;18.410;2022-11-20T03:35:00;10.80;;;2.55;;
56794;SDS011;42678;59.400;18.410;2022-11-20T03:37:25;13.48;;;3.08;;
56794;SDS011;42678;59.400;18.410;2022-11-20T03:39:51;12.93;;;4.25;;
56794;SDS011;42678;59.400;18.410;2022-11-20T03:42:16;15.02;;;3.78;;
56794;SDS011;42678;59.400;18.410;2022-11-20T03:45:00;14.82;;;2.67;;
56794;SDS011;42678;59.400;18.410;2022-11-20T03:47:25;11.23;;;3.60;;
56794;SDS011;42678;59.400;18.410;2022-11-20T03:49:50;12.85;;;2.95;;
56794;SDS011;42678;59.400;18.410;2022-11-20T03:52:16;11.90;;;3.75;;
56794;SDS011;42678;59.400;18.410;2022-11-20T03:54:41;9.90;;;3.33;;
56794;SDS011;42678;59.400;18.410;2022-11-20T03:57:07;16.25;;;3.45;;
56794;SDS011;42678;59.400;18.410;2022-11-20T03:59:33;12.93;;;3.00;;
56794;SDS011;42678;59.400;18.410;2022-11-20T04:01:58;15.23;;;3.95;;
56794;SDS011;42678;59.400;18.410;2022-11-20T04:04:24;10.32;;;3.10;;
56794;SDS011;42678;59.400;18.410;2022-11-20T04:06:49;11.73;;;2.95;;
56794;SDS011;42678;59.400;18.410;2022-11-20T04:09:14;12.27;;;2.80;;
56794;SDS011;42678;59.400;18.410;2022-11-20T04:11:40;11.10;;;3.20;;
56794;SDS011;42678;59.400;18.410;2022-11-20T04:14:11;13.13;;;3.90;;
56794;SDS011;42678;59.400;18.410;2022-11-20T04:16:37;8.45;;;2.47;;
56794;SDS011;42678;59.400;18.410;2022-11-20T04:19:04;7.68;;;2.67;;
56794;SDS011;42678;59.400;18.410;2022-11-20T04:21:29;5.57;;;1.92;;
56794;SDS011;42678;59.400;18.410;2022-11-20T04:23:56;8.50;;;3.00;;
56794;SDS011;42678;59.400;18.410;2022-11-20T04:26:22;8.95;;;2.58;;
56794;SDS011;42678;59.400;18.410;2022-11-20T04:28:48;8.32;;;2.20;;
56794;SDS011;42678;59.400;18.410;2022-11-20T04:31:15;12.02;;;2.97;;
56794;SDS011;42678;59.400;18.410;2022-11-20T04:33:41;8.77;;;2.90;;
56794;SDS011;42678;59.400;18.410;2022-11-20T04:36:09;7.45;;;1.98;;
56794;SDS011;42678;59.400;18.410;2022-11-20T04:38:35;9.23;;;2.97;;
56794;SDS011;42678;59.400;18.410;2022-11-20T04:41:02;8.73;;;2.38;;
56794;SDS011;42678;59.400;18.410;2022-11-20T04:43:28;6.63;;;2.38;;
56794;SDS011;42678;59.400;18.410;2022-11-20T04:45:54;10.35;;;2.33;;
56794;SDS011;42678;59.400;18.410;2022-11-20T04:48:19;6.65;;;2.28;;
56794;SDS011;42678;59.400;18.410;2022-11-20T04:50:45;7.80;;;2.17;;
56794;SDS011;42678;59.400;18.410;2022-11-20T04:53:11;10.00;;;2.10;;
56794;SDS011;42678;59.400;18.410;2022-11-20T04:55:36;6.72;;;2.40;;
56794;SDS011;42678;59.400;18.410;2022-11-20T04:58:01;8.27;;;2.20;;
56794;SDS011;42678;59.400;18.410;2022-11-20T05:00:27;9.60;;;2.13;;
56794;SDS011;42678;59.400;18.410;2022-11-20T05:02:52;9.52;;;3.10;;
56794;SDS011;42678;59.400;18.410;2022-11-20T05:05:18;6.20;;;2.05;;
56794;SDS011;42678;59.400;18.410;2022-11-20T05:07:43;10.85;;;2.60;;
56794;SDS011;42678;59.400;18.410;2022-11-20T05:10:08;9.05;;;2.47;;
56794;SDS011;42678;59.400;18.410;2022-11-20T05:12:34;9.02;;;2.22;;
56794;SDS011;42678;59.400;18.410;2022-11-20T05:14:59;8.75;;;2.67;;
56794;SDS011;42678;59.400;18.410;2022-11-20T05:17:25;8.98;;;2.45;;
56794;SDS011;42678;59.400;18.410;2022-11-20T05:19:50;8.57;;;2.70;;
56794;SDS011;42678;59.400;18.410;2022-11-20T05:22:15;7.07;;;2.17;;
56794;SDS011;42678;59.400;18.410;2022-11-20T05:24:41;9.00;;;2.97;;
56794;SDS011;42678;59.400;18.410;2022-11-20T05:27:06;5.75;;;2.22;;
56794;SDS011;42678;59.400;18.410;2022-11-20T05:29:31;16.92;;;3.20;;
56794;SDS011;42678;59.400;18.410;2022-11-20T05:31:57;9.02;;;2.50;;
56794;SDS011;42678;59.400;18.410;2022-11-20T05:34:22;13.10;;;2.33;;
56794;SDS011;42678;59.400;18.410;2022-11-20T05:36:47;4.70;;;1.90;;
56794;SDS011;42678;59.400;18.410;2022-11-20T05:39:13;8.00;;;2.03;;
56794;SDS011;42678;59.400;18.410;2022-11-20T05:41:38;8.48;;;1.80;;
56794;SDS011;42678;59.400;18.410;2022-11-20T05:44:04;7.32;;;2.65;;
56794;SDS011;42678;59.400;18.410;2022-11-20T05:46:29;5.10;;;1.98;;
56794;SDS011;42678;59.400;18.410;2022-11-20T05:48:55;7.38;;;2.25;;
56794;SDS011;42678;59.400;18.410;2022-11-20T05:51:21;6.13;;;1.90;;
56794;SDS011;42678;59.400;18.410;2022-11-20T05:53:46;9.82;;;2.40;;
56794;SDS011;42678;59.400;18.410;2022-11-20T05:56:12;7.28;;;2.35;;
56794;SDS011;42678;59.400;18.410;2022-11-20T05:58:38;6.28;;;2.00;;
56794;SDS011;42678;59.400;18.410;2022-11-20T06:01:05;2.78;;;0.82;;
56794;SDS011;42678;59.400;18.410;2022-11-20T06:03:30;3.55;;;1.63;;
56794;SDS011;42678;59.400;18.410;2022-11-20T06:05:56;10.15;;;2.20;;
56794;SDS011;42678;59.400;18.410;2022-11-20T06:08:23;1.70;;;0.45;;
56794;SDS011;42678;59.400;18.410;2022-11-20T06:10:48;4.60;;;2.00;;
56794;SDS011;42678;59.400;18.410;2022-11-20T06:13:14;8.00;;;1.98;;
56794;SDS011;42678;59.400;18.410;2022-11-20T06:15:39;7.47;;;1.58;;
56794;SDS011;42678;59.400;18.410;2022-11-20T06:18:04;8.55;;;2.55;;
56794;SDS011;42678;59.400;18.410;2022-11-20T06:20:30;7.78;;;1.83;;
56794;SDS011;42678;59.400;18.410;2022-11-20T06:22:55;7.45;;;2.30;;
56794;SDS011;42678;59.400;18.410;2022-11-20T06:25:21;6.95;;;2.13;;
56794;SDS011;42678;59.400;18.410;2022-11-20T06:27:46;6.82;;;2.50;;
56794;SDS011;42678;59.400;18.410;2022-11-20T06:30:12;9.07;;;2.55;;
56794;SDS011;42678;59.400;18.410;2022-11-20T06:32:37;5.43;;;2.13;;
56794;SDS011;42678;59.400;18.410;2022-11-20T06:35:02;8.43;;;2.90;;
56794;SDS011;42678;59.400;18.410;2022-11-20T06:37:28;7.03;;;2.80;;
56794;SDS011;42678;59.400;18.410;2022-11-20T06:39:53;11.68;;;2.55;;
56794;SDS011;42678;59.400;18.410;2022-11-20T06:42:19;8.05;;;2.10;;
56794;SDS011;42678;59.400;18.410;2022-11-20T06:44:44;7.47;;;2.47;;
56794;SDS011;42678;59.400;18.410;2022-11-20T06:47:09;8.48;;;2.30;;
56794;SDS011;42678;59.400;18.410;2022-11-20T06:49:35;9.18;;;3.17;;
56794;SDS011;42678;59.400;18.410;2022-11-20T06:52:02;6.43;;;2.63;;
56794;SDS011;42678;59.400;18.410;2022-11-20T06:54:28;12.45;;;2.70;;
56794;SDS011;42678;59.400;18.410;2022-11-20T06:56:54;7.70;;;2.55;;
56794;SDS011;42678;59.400;18.410;2022-11-20T06:59:19;10.73;;;2.53;;
56794;SDS011;42678;59.400;18.410;2022-11-20T07:01:45;10.57;;;2.80;;
56794;SDS011;42678;59.400;18.410;2022-11-20T07:04:10;8.15;;;2.78;;
56794;SDS011;42678;59.400;18.410;2022-11-20T07:06:35;11.30;;;2.30;;
56794;SDS011;42678;59.400;18.410;2022-11-20T07:09:01;10.10;;;2.53;;
56794;SDS011;42678;59.400;18.410;2022-11-20T07:11:26;7.25;;;2.03;;
56794;SDS011;42678;59.400;18.410;2022-11-20T07:13:52;5.20;;;2.20;;
56794;SDS011;42678;59.400;18.410;2022-11-20T07:16:17;6.68;;;2.10;;
56794;SDS011;42678;59.400;18.410;2022-11-20T07:18:43;10.52;;;2.30;;
56794;SDS011;42678;59.400;18.410;2022-11-20T07:21:09;3.65;;;1.15;;
56794;SDS011;42678;59.400;18.410;2022-11-20T07:23:35;9.80;;;2.55;;
56794;SDS011;42678;59.400;18.410;2022-11-20T07:26:07;9.65;;;2.33;;
56794;SDS011;42678;59.400;18.410;2022-11-20T07:28:32;6.75;;;2.47;;
56794;SDS011;42678;59.400;18.410;2022-11-20T07:30:58;8.90;;;2.33;;
56794;SDS011;42678;59.400;18.410;2022-11-20T07:33:24;3.95;;;1.45;;
56794;SDS011;42678;59.400;18.410;2022-11-20T07:35:49;7.60;;;2.20;;
56794;SDS011;42678;59.400;18.410;2022-11-20T07:38:14;9.55;;;2.40;;
56794;SDS011;42678;59.400;18.410;2022-11-20T07:40:40;6.60;;;2.30;;
56794;SDS011;42678;59.400;18.410;2022-11-20T07:43:05;8.63;;;2.83;;
56794;SDS011;42678;59.400;18.410;2022-11-20T07:45:31;5.50;;;2.15;;
56794;SDS011;42678;59.400;18.410;2022-11-20T07:47:56;4.82;;;2.10;;
56794;SDS011;42678;59.400;18.410;2022-11-20T07:50:21;7.43;;;2.88;;
56794;SDS011;42678;59.400;18.410;2022-11-20T07:52:47;6.38;;;2.20;;
56794;SDS011;42678;59.400;18.410;2022-11-20T07:55:12;6.60;;;2.10;;
56794;SDS011;42678;59.400;18.410;2022-11-20T07:57:38;6.38;;;1.80;;
56794;SDS011;42678;59.400;18.410;2022-11-20T08:00:04;7.85;;;2.17;;
56794;SDS011;42678;59.400;18.410;2022-11-20T08:02:29;6.80;;;2.22;;
56794;SDS011;42678;59.400;18.410;2022-11-20T08:04:56;5.95;;;2.00;;
56794;SDS011;42678;59.400;18.410;2022-11-20T08:07:21;5.90;;;1.70;;
56794;SDS011;42678;59.400;18.410;2022-11-20T08:09:47;8.00;;;2.28;;
56794;SDS011;42678;59.400;18.410;2022-11-20T08:12:19;7.93;;;2.17;;
56794;SDS011;42678;59.400;18.410;2022-11-20T08:15:04;3.83;;;1.55;;
56794;SDS011;42678;59.400;18.410;2022-11-20T08:17:30;6.82;;;1.98;;
56794;SDS011;42678;59.400;18.410;2022-11-20T08:19:55;4.95;;;1.83;;
56794;SDS011;42678;59.400;18.410;2022-11-20T08:22:21;3.20;;;1.55;;
56794;SDS011;42678;59.400;18.410;2022-11-20T08:24:46;8.75;;;2.15;;
56794;SDS011;42678;59.400;18.410;2022-11-20T08:27:11;5.78;;;1.58;;
56794;SDS011;42678;59.400;18.410;2022-11-20T08:29:37;5.60;;;1.70;;
56794;SDS011;42678;59.400;18.410;2022-11-20T08:32:02;3.67;;;1.35;;
56794;SDS011;42678;59.400;18.410;2022-11-20T08:34:28;4.80;;;1.55;;
56794;SDS011;42678;59.400;18.410;2022-11-20T08:36:53;4.47;;;1.08;;
56794;SDS011;42678;59.400;18.410;2022-11-20T08:39:19;8.57;;;1.58;;
56794;SDS011;42678;59.400;18.410;2022-11-20T08:41:44;3.70;;;1.45;;
56794;SDS011;42678;59.400;18.410;2022-11-20T08:44:09;5.47;;;1.35;;
56794;SDS011;42678;59.400;18.410;2022-11-20T08:46:36;2.35;;;1.23;;
56794;SDS011;42678;59.400;18.410;2022-11-20T08:49:03;3.15;;;0.98;;
56794;SDS011;42678;59.400;18.410;2022-11-20T08:51:32;4.07;;;1.35;;
56794;SDS011;42678;59.400;18.410;2022-11-20T08:53:57;7.07;;;1.80;;
56794;SDS011;42678;59.400;18.410;2022-11-20T08:56:22;1.25;;;0.70;;
56794;SDS011;42678;59.400;18.410;2022-11-20T08:58:49;2.85;;;1.23;;
56794;SDS011;42678;59.400;18.410;2022-11-20T09:01:14;1.48;;;1.00;;
56794;SDS011;42678;59.400;18.410;2022-11-20T09:03:40;2.10;;;0.70;;
56794;SDS011;42678;59.400;18.410;2022-11-20T09:06:06;2.58;;;1.50;;
56794;SDS011;42678;59.400;18.410;2022-11-20T09:08:32;4.13;;;1.50;;
56794;SDS011;42678;59.400;18.410;2022-11-20T09:10:57;3.25;;;1.33;;
56794;SDS011;42678;59.400;18.410;2022-11-20T09:13:24;2.50;;;1.10;;
56794;SDS011;42678;59.400;18.410;2022-11-20T09:15:53;3.85;;;1.55;;
56794;SDS011;42678;59.400;18.410;2022-11-20T09:18:19;3.72;;;1.33;;
56794;SDS011;42678;59.400;18.410;2022-11-20T09:20:44;3.17;;;1.15;;
56794;SDS011;42678;59.400;18.410;2022-11-20T09:23:10;4.05;;;1.38;;
56794;SDS011;42678;59.400;18.410;2022-11-20T09:25:35;2.63;;;1.20;;
56794;SDS011;42678;59.400;18.410;2022-11-20T09:28:01;3.78;;;1.45;;
56794;SDS011;42678;59.400;18.410;2022-11-20T09:30:26;2.67;;;1.05;;
56794;SDS011;42678;59.400;18.410;2022-11-20T09:32:52;3.47;;;1.98;;
56794;SDS011;42678;59.400;18.410;2022-11-20T09:35:18;5.28;;;1.70;;
56794;SDS011;42678;59.400;18.410;2022-11-20T09:37:43;3.72;;;1.30;;
56794;SDS011;42678;59.400;18.410;2022-11-20T09:40:22;7.22;;;1.58;;
56794;SDS011;42678;59.400;18.410;2022-11-20T09:45:21;6.50;;;2.00;;
56794;SDS011;42678;59.400;18.410;2022-11-20T09:50:24;1.90;;;0.98;;
56794;SDS011;42678;59.400;18.410;2022-11-20T09:52:57;2.88;;;1.30;;
56794;SDS011;42678;59.400;18.410;2022-11-20T09:55:23;2.47;;;1.20;;
56794;SDS011;42678;59.400;18.410;2022-11-20T09:57:50;2.05;;;1.10;;
56794;SDS011;42678;59.400;18.410;2022-11-20T10:00:16;2.72;;;1.10;;
56794;SDS011;42678;59.400;18.410;2022-11-20T10:02:44;3.63;;;1.23;;
56794;SDS011;42678;59.400;18.410;2022-11-20T10:05:18;3.17;;;1.48;;
56794;SDS011;42678;59.400;18.410;2022-11-20T10:08:27;3.28;;;1.10;;
56794;SDS011;42678;59.400;18.410;2022-11-20T10:10:45;4.65;;;1.50;;
56794;SDS011;42678;59.400;18.410;2022-11-20T10:13:35;4.18;;;1.85;;
56794;SDS011;42678;59.400;18.410;2022-11-20T10:16:08;3.38;;;0.82;;
56794;SDS011;42678;59.400;18.410;2022-11-20T10:38:18;2.47;;;1.27;;
56794;SDS011;42678;59.400;18.410;2022-11-20T10:40:45;2.42;;;0.93;;
56794;SDS011;42678;59.400;18.410;2022-11-20T10:45:53;0.80;;;0.25;;
56794;SDS011;42678;59.400;18.410;2022-11-20T10:48:23;0.17;;;0.17;;
56794;SDS011;42678;59.400;18.410;2022-11-20T10:53:54;0.00;;;0.00;;
56794;SDS011;42678;59.400;18.410;2022-11-20T10:56:26;0.65;;;0.65;;
56794;SDS011;42678;59.400;18.410;2022-11-20T11:01:39;0.17;;;0.17;;
56794;SDS011;42678;59.400;18.410;2022-11-20T11:04:07;0.00;;;0.00;;
56794;SDS011;42678;59.400;18.410;2022-11-20T11:06:39;0.10;;;0.10;;
56794;SDS011;42678;59.400;18.410;2022-11-20T11:09:13;0.00;;;0.00;;
56794;SDS011;42678;59.400;18.410;2022-11-20T11:11:40;0.00;;;0.00;;
56794;SDS011;42678;59.400;18.410;2022-11-20T11:16:31;0.00;;;0.00;;
56794;SDS011;42678;59.400;18.410;2022-11-20T11:19:06;0.00;;;0.00;;
56794;SDS011;42678;59.400;18.410;2022-11-20T11:21:35;1.52;;;0.88;;
56794;SDS011;42678;59.400;18.410;2022-11-20T11:24:14;0.00;;;0.00;;
56794;SDS011;42678;59.400;18.410;2022-11-20T11:26:40;0.00;;;0.00;;
56794;SDS011;42678;59.400;18.410;2022-11-20T11:29:17;0.00;;;0.00;;
56794;SDS011;42678;59.400;18.410;2022-11-20T11:31:42;0.00;;;0.00;;
56794;SDS011;42678;59.400;18.410;2022-11-20T11:34:11;0.20;;;0.20;;
56794;SDS011;42678;59.400;18.410;2022-11-20T11:36:37;0.00;;;0.00;;
56794;SDS011;42678;59.400;18.410;2022-11-20T11:39:03;0.00;;;0.00;;
56794;SDS011;42678;59.400;18.410;2022-11-20T11:41:30;0.00;;;0.00;;
56794;SDS011;42678;59.400;18.410;2022-11-20T11:44:01;0.00;;;0.00;;
56794;SDS011;42678;59.400;18.410;2022-11-20T11:46:53;0.00;;;0.00;;
56794;SDS011;42678;59.400;18.410;2022-11-20T11:49:20;0.00;;;0.00;;
56794;SDS011;42678;59.400;18.410;2022-11-20T11:52:02;0.55;;;0.20;;
56794;SDS011;42678;59.400;18.410;2022-11-20T11:56:55;0.00;;;0.00;;
56794;SDS011;42678;59.400;18.410;2022-11-20T11:59:27;0.00;;;0.00;;
56794;SDS011;42678;59.400;18.410;2022-11-20T12:01:57;0.00;;;0.00;;
56794;SDS011;42678;59.400;18.410;2022-11-20T12:07:33;0.00;;;0.00;;
56794;SDS011;42678;59.400;18.410;2022-11-20T12:09:41;0.00;;;0.00;;
56794;SDS011;42678;59.400;18.410;2022-11-20T12:12:09;0.00;;;0.00;;
56794;SDS011;42678;59.400;18.410;2022-11-20T12:14:37;0.10;;;0.10;;
56794;SDS011;42678;59.400;18.410;2022-11-20T12:17:03;0.00;;;0.00;;
56794;SDS011;42678;59.400;18.410;2022-11-20T12:19:33;0.00;;;0.00;;
56794;SDS011;42678;59.400;18.410;2022-11-20T12:22:04;4.18;;;0.47;;
56794;SDS011;42678;59.400;18.410;2022-11-20T12:24:44;0.00;;;0.00;;
56794;SDS011;42678;59.400;18.410;2022-11-20T12:35:17;0.00;;;0.00;;
56794;SDS011;42678;59.400;18.410;2022-11-20T12:40:35;0.00;;;0.00;;
56794;SDS011;42678;59.400;18.410;2022-11-20T12:43:11;0.00;;;0.00;;
56794;SDS011;42678;59.400;18.410;2022-11-20T12:48:49;0.00;;;0.00;;
56794;SDS011;42678;59.400;18.410;2022-11-20T12:51:21;0.10;;;0.08;;
56794;SDS011;42678;59.400;18.410;2022-11-20T13:01:49;0.00;;;0.00;;
56794;SDS011;42678;59.400;18.410;2022-11-20T13:06:47;1.10;;;0.20;;
56794;SDS011;42678;59.400;18.410;2022-11-20T13:09:14;0.10;;;0.10;;
56794;SDS011;42678;59.400;18.410;2022-11-20T13:14:14;0.00;;;0.00;;
56794;SDS011;42678;59.400;18.410;2022-11-20T13:19:12;0.65;;;0.32;;
56794;SDS011;42678;59.400;18.410;2022-11-20T13:21:39;0.17;;;0.17;;
56794;SDS011;42678;59.400;18.410;2022-11-20T13:24:05;0.17;;;0.17;;
56794;SDS011;42678;59.400;18.410;2022-11-20T13:26:31;0.00;;;0.00;;
56794;SDS011;42678;59.400;18.410;2022-11-20T13:29:07;0.00;;;0.00;;
56794;SDS011;42678;59.400;18.410;2022-11-20T13:31:34;0.00;;;0.00;;
56794;SDS011;42678;59.400;18.410;2022-11-20T13:34:02;0.00;;;0.00;;
56794;SDS011;42678;59.400;18.410;2022-11-20T13:36:29;0.05;;;0.05;;
56794;SDS011;42678;59.400;18.410;2022-11-20T13:38:55;0.00;;;0.00;;
56794;SDS011;42678;59.400;18.410;2022-11-20T13:41:28;0.00;;;0.00;;
56794;SDS011;42678;59.400;18.410;2022-11-20T13:46:37;0.00;;;0.00;;
56794;SDS011;42678;59.400;18.410;2022-11-20T13:49:08;0.30;;;0.30;;
56794;SDS011;42678;59.400;18.410;2022-11-20T13:51:44;0.00;;;0.00;;
56794;SDS011;42678;59.400;18.410;2022-11-20T13:59:54;0.20;;;0.15;;
56794;SDS011;42678;59.400;18.410;2022-11-20T14:01:51;0.00;;;0.00;;
56794;SDS011;42678;59.400;18.410;2022-11-20T14:04:19;0.30;;;0.30;;
56794;SDS011;42678;59.400;18.410;2022-11-20T14:06:46;0.00;;;0.00;;
56794;SDS011;42678;59.400;18.410;2022-11-20T14:09:34;0.03;;;0.00;;
56794;SDS011;42678;59.400;18.410;2022-11-20T14:11:59;0.35;;;0.20;;
56794;SDS011;42678;59.400;18.410;2022-11-20T14:14:26;0.00;;;0.00;;
56794;SDS011;42678;59.400;18.410;2022-11-20T14:16:52;1.45;;;1.35;;
56794;SDS011;42678;59.400;18.410;2022-11-20T14:21:51;0.00;;;0.00;;
56794;SDS011;42678;59.400;18.410;2022-11-20T14:24:21;0.00;;;0.00;;
56794;SDS011;42678;59.400;18.410;2022-11-20T14:26:46;0.00;;;0.00;;
56794;SDS011;42678;59.400;18.410;2022-11-20T14:29:15;0.00;;;0.00;;
56794;SDS011;42678;59.400;18.410;2022-11-20T14:31:42;0.00;;;0.00;;
56794;SDS011;42678;59.400;18.410;2022-11-20T14:34:15;0.00;;;0.00;;
56794;SDS011;42678;59.400;18.410;2022-11-20T14:36:41;0.00;;;0.00;;
56794;SDS011;42678;59.400;18.410;2022-11-20T14:39:09;0.00;;;0.00;;
56794;SDS011;42678;59.400;18.410;2022-11-20T14:41:36;0.30;;;0.28;;
56794;SDS011;42678;59.400;18.410;2022-11-20T14:44:01;0.25;;;0.25;;
56794;SDS011;42678;59.400;18.410;2022-11-20T14:46:27;0.00;;;0.00;;
56794;SDS011;42678;59.400;18.410;2022-11-20T14:48:56;0.00;;;0.00;;
56794;SDS011;42678;59.400;18.410;2022-11-20T14:53:50;0.00;;;0.00;;
56794;SDS011;42678;59.400;18.410;2022-11-20T14:56:20;0.00;;;0.00;;
56794;SDS011;42678;59.400;18.410;2022-11-20T14:58:54;0.00;;;0.00;;
56794;SDS011;42678;59.400;18.410;2022-11-20T15:01:24;0.00;;;0.00;;
56794;SDS011;42678;59.400;18.410;2022-11-20T15:03:57;0.22;;;0.22;;
56794;SDS011;42678;59.400;18.410;2022-11-20T15:06:25;9.07;;;1.13;;
56794;SDS011;42678;59.400;18.410;2022-11-20T15:08:52;0.00;;;0.00;;
56794;SDS011;42678;59.400;18.410;2022-11-20T15:11:18;0.00;;;0.00;;
56794;SDS011;42678;59.400;18.410;2022-11-20T15:13:44;1.38;;;0.57;;
56794;SDS011;42678;59.400;18.410;2022-11-20T15:16:20;0.17;;;0.05;;
56794;SDS011;42678;59.400;18.410;2022-11-20T15:18:46;0.00;;;0.00;;
56794;SDS011;42678;59.400;18.410;2022-11-20T15:21:13;0.00;;;0.00;;
56794;SDS011;42678;59.400;18.410;2022-11-20T15:23:38;0.00;;;0.00;;
56794;SDS011;42678;59.400;18.410;2022-11-20T15:26:07;0.00;;;0.00;;
56794;SDS011;42678;59.400;18.410;2022-11-20T15:28:33;0.00;;;0.00;;
56794;SDS011;42678;59.400;18.410;2022-11-20T15:30:59;0.00;;;0.00;;
56794;SDS011;42678;59.400;18.410;2022-11-20T15:33:25;0.10;;;0.10;;
56794;SDS011;42678;59.400;18.410;2022-11-20T15:35:50;0.10;;;0.10;;
56794;SDS011;42678;59.400;18.410;2022-11-20T15:38:16;0.00;;;0.00;;
56794;SDS011;42678;59.400;18.410;2022-11-20T15:40:41;0.00;;;0.00;;
56794;SDS011;42678;59.400;18.410;2022-11-20T15:43:06;0.00;;;0.00;;
56794;SDS011;42678;59.400;18.410;2022-11-20T15:45:55;0.00;;;0.00;;
56794;SDS011;42678;59.400;18.410;2022-11-20T15:48:29;0.00;;;0.00;;
56794;SDS011;42678;59.400;18.410;2022-11-20T15:51:06;0.00;;;0.00;;
56794;SDS011;42678;59.400;18.410;2022-11-20T15:53:32;0.00;;;0.00;;
56794;SDS011;42678;59.400;18.410;2022-11-20T15:55:58;0.00;;;0.00;;
56794;SDS011;42678;59.400;18.410;2022-11-20T15:58:23;0.00;;;0.00;;
56794;SDS011;42678;59.400;18.410;2022-11-20T16:00:49;0.00;;;0.00;;